createdAt,value
2019-01-05T00:01:05.637Z,20.90
2019-01-05T00:03:45.911Z,21.70
2019-01-05T00:09:23.437Z,20.32
2019-01-05T00:11:51.701Z,20.08
2019-01-05T00:14:20.019Z,20.10
2019-01-05T00:16:48.683Z,21.95
2019-01-05T00:19:34.411Z,20.10
2019-01-05T00:22:12.031Z,20.27
2019-01-05T00:24:57.071Z,20.10
2019-01-05T00:27:37.821Z,19.32
2019-01-05T00:30:13.766Z,19.75
2019-01-05T00:32:57.767Z,18.75
2019-01-05T00:35:42.015Z,19.95
2019-01-05T00:38:11.078Z,20.43
2019-01-05T00:40:56.920Z,21.25
2019-01-05T00:43:30.894Z,20.48
2019-01-05T00:46:07.293Z,21.10
2019-01-05T00:48:53.377Z,19.55
2019-01-05T00:51:40.301Z,21.07
2019-01-05T00:54:10.503Z,21.12
2019-01-05T00:56:39.275Z,19.82
2019-01-05T00:59:08.034Z,20.77
2019-01-05T01:01:36.425Z,20.82
2019-01-05T01:04:04.795Z,18.70
2019-01-05T01:07:09.340Z,22.58
2019-01-05T01:09:40.221Z,19.70
2019-01-05T01:12:17.477Z,20.52
2019-01-05T01:14:45.860Z,20.00
2019-01-05T01:17:14.126Z,21.62
2019-01-05T01:19:42.623Z,21.95
2019-01-05T01:22:20.208Z,21.35
2019-01-05T01:24:51.362Z,21.35
2019-01-05T01:27:32.072Z,20.85
2019-01-05T01:30:17.778Z,19.07
2019-01-05T01:32:48.718Z,20.57
2019-01-05T01:35:33.798Z,19.95
2019-01-05T01:38:17.613Z,21.45
2019-01-05T01:40:51.832Z,19.52
2019-01-05T01:43:26.157Z,20.70
2019-01-05T01:46:04.617Z,20.10
2019-01-05T01:48:38.873Z,19.62
2019-01-05T01:51:17.121Z,19.05
2019-01-05T01:54:01.525Z,17.62
2019-01-05T01:56:45.152Z,19.23
2019-01-05T01:59:32.977Z,19.20
2019-01-05T02:02:15.252Z,21.48
2019-01-05T02:05:01.781Z,20.12
2019-01-05T02:07:42.797Z,20.62
2019-01-05T02:10:17.834Z,19.32
2019-01-05T02:12:52.782Z,17.32
2019-01-05T02:15:42.752Z,19.23
2019-01-05T02:18:40.264Z,19.45
2019-01-05T02:21:21.429Z,18.48
2019-01-05T02:24:11.470Z,18.90
2019-01-05T02:27:09.574Z,20.70
2019-01-05T02:30:16.214Z,19.45
2019-01-05T02:33:06.320Z,18.37
2019-01-05T02:36:21.109Z,18.82
2019-01-05T02:39:07.886Z,17.15
2019-01-05T02:41:48.641Z,19.60
2019-01-05T02:45:03.657Z,19.70
2019-01-05T02:47:50.970Z,19.65
2019-01-05T02:50:48.630Z,20.12
2019-01-05T02:53:57.179Z,22.82
2019-01-05T02:56:47.114Z,21.90
2019-01-05T02:59:47.569Z,21.90
2019-01-05T03:02:57.436Z,23.80
2019-01-05T03:06:10.578Z,22.15
2019-01-05T03:08:48.789Z,24.37
2019-01-05T03:11:45.506Z,24.10
2019-01-05T03:14:46.248Z,24.72
2019-01-05T03:17:51.981Z,23.15
2019-01-05T03:20:45.309Z,23.47
2019-01-05T03:23:26.064Z,25.10
2019-01-05T03:26:31.109Z,24.30
2019-01-05T03:29:25.355Z,23.75
2019-01-05T03:32:20.054Z,21.00
2019-01-05T03:35:11.680Z,21.15
2019-01-05T03:38:09.716Z,22.17
2019-01-05T03:40:53.468Z,22.20
2019-01-05T03:43:37.667Z,20.37
2019-01-05T03:46:32.151Z,21.82
2019-01-05T03:49:35.912Z,22.75
2019-01-05T03:52:24.513Z,19.45
2019-01-05T03:55:16.050Z,18.87
2019-01-05T03:58:11.960Z,21.57
2019-01-05T04:00:52.428Z,20.25
2019-01-05T04:03:53.561Z,20.02
2019-01-05T04:06:43.688Z,17.75
2019-01-05T04:09:24.782Z,17.65
2019-01-05T04:12:20.794Z,20.40
2019-01-05T04:15:11.331Z,18.95
2019-01-05T04:18:25.206Z,17.70
2019-01-05T04:21:30.441Z,20.02
2019-01-05T04:24:08.037Z,17.32
2019-01-05T04:27:02.735Z,16.77
2019-01-05T04:29:43.800Z,18.15
2019-01-05T04:32:40.002Z,17.73
2019-01-05T04:35:17.718Z,18.98
2019-01-05T04:38:19.979Z,18.52
2019-01-05T04:41:00.645Z,15.70
2019-01-05T04:44:06.814Z,17.92
2019-01-05T04:46:57.485Z,19.00
2019-01-05T04:49:54.961Z,16.90
2019-01-05T04:52:38.779Z,21.10
2019-01-05T04:55:25.941Z,18.90
2019-01-05T04:58:14.913Z,18.07
2019-01-05T05:01:04.755Z,15.50
2019-01-05T05:04:04.449Z,18.70
2019-01-05T05:06:53.169Z,16.30
2019-01-05T05:10:03.524Z,17.65
2019-01-05T05:12:56.289Z,14.93
2019-01-05T05:15:52.081Z,15.65
2019-01-05T05:18:32.842Z,17.45
2019-01-05T05:21:10.506Z,16.48
2019-01-05T05:24:20.316Z,15.00
2019-01-05T05:27:27.713Z,15.30
2019-01-05T05:30:22.327Z,15.93
2019-01-05T05:33:22.617Z,14.78
2019-01-05T05:36:18.490Z,16.00
2019-01-05T05:39:23.517Z,14.90
2019-01-05T05:42:32.199Z,16.40
2019-01-05T05:45:32.613Z,16.65
2019-01-05T05:48:27.279Z,15.40
2019-01-05T05:51:19.761Z,15.08
2019-01-05T05:54:25.441Z,15.80
2019-01-05T05:57:06.447Z,15.03
2019-01-05T06:00:31.843Z,12.60
2019-01-05T06:03:32.203Z,15.00
2019-01-05T06:06:27.200Z,12.80
2019-01-05T06:09:17.541Z,13.03
2019-01-05T06:12:30.587Z,13.70
2019-01-05T06:15:38.707Z,14.98
2019-01-05T06:18:16.393Z,13.45
2019-01-05T06:21:11.144Z,12.53
2019-01-05T06:24:17.930Z,10.90
2019-01-05T06:27:19.056Z,12.03
2019-01-05T06:29:53.904Z,11.28
2019-01-05T06:33:18.128Z,10.03
2019-01-05T06:36:33.105Z,12.80
2019-01-05T06:39:44.673Z,11.25
2019-01-05T06:42:41.924Z,11.43
2019-01-05T06:45:25.347Z,10.32
2019-01-05T06:48:15.279Z,10.20
2019-01-05T06:51:04.168Z,8.55
2019-01-05T06:53:57.721Z,9.10
2019-01-05T06:56:56.778Z,9.48
2019-01-05T06:59:54.958Z,9.40
2019-01-05T07:02:35.753Z,9.70
2019-01-05T07:05:39.472Z,9.50
2019-01-05T07:08:40.642Z,8.78
2019-01-05T07:11:18.658Z,10.20
2019-01-05T07:14:05.623Z,10.78
2019-01-05T07:16:52.405Z,10.72
2019-01-05T07:19:39.222Z,10.00
2019-01-05T07:22:37.714Z,11.10
2019-01-05T07:25:44.923Z,10.32
2019-01-05T07:28:51.599Z,10.58
2019-01-05T07:31:55.669Z,9.60
2019-01-05T07:34:38.665Z,9.60
2019-01-05T07:37:16.714Z,10.15
2019-01-05T07:40:15.330Z,10.72
2019-01-05T07:43:08.449Z,9.28
2019-01-05T07:46:01.303Z,12.00
2019-01-05T07:49:10.008Z,8.08
2019-01-05T07:52:19.012Z,10.45
2019-01-05T07:55:20.186Z,11.38
2019-01-05T07:58:29.179Z,12.03
2019-01-05T08:01:26.712Z,10.13
2019-01-05T08:04:15.561Z,10.63
2019-01-05T08:07:08.564Z,12.20
2019-01-05T08:10:09.725Z,8.78
2019-01-05T08:12:50.580Z,7.67
2019-01-05T08:15:45.120Z,8.43
2019-01-05T08:21:57.382Z,6.62
2019-01-05T08:25:07.631Z,6.80
2019-01-05T08:28:14.754Z,5.72
2019-01-05T08:31:26.473Z,13.35
2019-01-05T08:34:16.834Z,8.55
2019-01-05T08:37:01.149Z,7.37
2019-01-05T08:39:44.748Z,6.90
2019-01-05T08:42:46.528Z,7.10
2019-01-05T08:45:55.279Z,8.18
2019-01-05T08:48:32.995Z,6.85
2019-01-05T08:51:35.528Z,6.08
2019-01-05T08:54:42.657Z,6.78
2019-01-05T08:57:17.337Z,6.95
2019-01-05T09:00:39.992Z,7.03
2019-01-05T09:03:32.572Z,6.60
2019-01-05T09:06:43.080Z,6.70
2019-01-05T09:09:35.897Z,6.97
2019-01-05T09:12:54.211Z,8.08
2019-01-05T09:15:50.401Z,7.00
2019-01-05T09:18:28.186Z,7.58
2019-01-05T09:21:08.266Z,6.65
2019-01-05T09:23:49.112Z,7.03
2019-01-05T09:26:57.404Z,6.40
2019-01-05T09:30:16.395Z,6.90
2019-01-05T09:33:02.781Z,8.10
2019-01-05T09:36:07.206Z,7.40
2019-01-05T09:39:07.892Z,6.70
2019-01-05T09:42:06.994Z,7.30
2019-01-05T09:44:57.062Z,6.70
2019-01-05T09:47:29.060Z,5.92
2019-01-05T09:50:20.720Z,15.83
2019-01-05T09:53:18.402Z,20.27
2019-01-05T09:55:53.536Z,14.15
2019-01-05T09:58:42.349Z,18.82
2019-01-05T10:01:32.651Z,16.55
2019-01-05T10:04:45.331Z,9.08
2019-01-05T10:07:46.525Z,11.75
2019-01-05T10:10:55.336Z,14.98
2019-01-05T10:14:01.875Z,14.45
2019-01-05T10:16:56.933Z,13.78
2019-01-05T10:19:37.418Z,10.05
2019-01-05T10:22:53.541Z,9.00
2019-01-05T10:25:31.464Z,11.10
2019-01-05T10:28:23.186Z,10.35
2019-01-05T10:31:30.499Z,18.02
2019-01-05T10:34:26.891Z,9.05
2019-01-05T10:37:39.968Z,13.70
2019-01-05T10:40:29.189Z,10.15
2019-01-05T10:43:27.237Z,5.97
2019-01-05T10:46:26.760Z,4.45
2019-01-05T10:49:15.296Z,5.58
2019-01-05T10:51:55.771Z,9.15
2019-01-05T10:54:49.442Z,10.10
2019-01-05T10:57:39.124Z,12.55
2019-01-05T11:01:01.917Z,7.12
2019-01-05T11:04:07.884Z,6.33
2019-01-05T11:07:08.645Z,7.17
2019-01-05T11:10:22.594Z,5.12
2019-01-05T11:13:28.024Z,6.30
2019-01-05T11:16:44.410Z,6.00
2019-01-05T11:19:25.156Z,6.92
2019-01-05T11:22:20.699Z,7.00
2019-01-05T11:25:13.543Z,7.55
2019-01-05T11:28:21.148Z,7.30
2019-01-05T11:31:28.140Z,6.92
2019-01-05T11:34:49.487Z,6.90
2019-01-05T11:37:57.948Z,4.70
2019-01-05T11:40:54.574Z,5.87
2019-01-05T11:43:43.044Z,5.00
2019-01-05T11:47:03.456Z,5.83
2019-01-05T11:50:04.223Z,5.40
2019-01-05T11:52:56.690Z,5.83
2019-01-05T11:55:53.749Z,6.20
2019-01-05T11:58:37.213Z,4.80
2019-01-05T12:01:21.348Z,6.70
2019-01-05T12:04:05.359Z,5.80
2019-01-05T12:06:54.220Z,5.53
2019-01-05T12:09:51.779Z,5.72
2019-01-05T12:12:46.526Z,4.60
2019-01-05T12:15:48.648Z,4.70
2019-01-05T12:18:46.125Z,4.62
2019-01-05T12:21:53.295Z,5.50
2019-01-05T12:24:40.376Z,4.55
2019-01-05T12:27:37.856Z,5.10
2019-01-05T12:30:45.325Z,5.40
2019-01-05T12:33:55.399Z,5.72
2019-01-05T12:37:04.380Z,6.90
2019-01-05T12:40:05.547Z,5.53
2019-01-05T12:43:18.781Z,5.37
2019-01-05T12:45:53.382Z,6.03
2019-01-05T12:49:06.671Z,15.90
2019-01-05T12:51:55.315Z,10.38
2019-01-05T12:55:03.557Z,5.83
2019-01-05T12:57:53.642Z,9.10
2019-01-05T13:01:05.164Z,8.40
2019-01-05T13:03:45.655Z,8.25
2019-01-05T13:06:35.299Z,5.80
2019-01-05T13:09:39.293Z,5.58
2019-01-05T13:12:28.456Z,5.70
2019-01-05T13:15:00.456Z,6.08
2019-01-05T13:18:20.761Z,4.97
2019-01-05T13:21:27.935Z,5.10
2019-01-05T13:24:17.985Z,5.90
2019-01-05T13:26:58.769Z,5.35
2019-01-05T13:29:48.848Z,6.12
2019-01-05T13:32:50.758Z,8.20
2019-01-05T13:35:34.300Z,12.10
2019-01-05T13:38:21.292Z,6.20
2019-01-05T13:41:28.270Z,8.35
2019-01-05T13:44:23.811Z,6.75
2019-01-05T13:47:21.816Z,6.95
2019-01-05T13:50:32.002Z,6.72
2019-01-05T13:53:20.791Z,6.60
2019-01-05T13:55:55.924Z,6.83
2019-01-05T13:58:40.999Z,6.20
2019-01-05T14:01:24.266Z,6.37
2019-01-05T14:04:09.054Z,5.78
2019-01-05T14:06:53.768Z,5.62
2019-01-05T14:09:38.551Z,5.55
2019-01-05T14:12:24.775Z,5.53
2019-01-05T14:15:11.189Z,5.95
2019-01-05T14:17:57.710Z,5.47
2019-01-05T14:20:42.441Z,8.28
2019-01-05T14:23:27.149Z,6.00
2019-01-05T14:26:10.517Z,6.55
2019-01-05T14:28:47.681Z,10.38
2019-01-05T14:31:28.185Z,7.62
2019-01-05T14:33:56.333Z,6.47
2019-01-05T14:36:33.518Z,5.75
2019-01-05T14:39:13.915Z,6.00
2019-01-05T14:41:42.105Z,6.50
2019-01-05T14:44:27.137Z,7.62
2019-01-05T14:47:11.921Z,5.65
2019-01-05T14:49:45.897Z,4.90
2019-01-05T14:52:27.081Z,4.97
2019-01-05T14:55:07.360Z,5.30
2019-01-05T14:57:44.552Z,4.17
2019-01-05T15:00:29.790Z,4.10
2019-01-05T15:03:09.977Z,3.70
2019-01-05T15:05:54.705Z,4.22
2019-01-05T15:08:22.936Z,4.05
2019-01-05T15:11:07.913Z,3.92
2019-01-05T15:13:36.136Z,3.67
2019-01-05T15:16:04.502Z,6.08
2019-01-05T15:18:35.781Z,4.97
2019-01-05T15:21:20.714Z,4.10
2019-01-05T15:24:07.034Z,3.72
2019-01-05T15:26:50.216Z,3.40
2019-01-05T15:29:35.101Z,5.25
2019-01-05T15:32:06.253Z,4.20
2019-01-05T15:34:43.679Z,5.40
2019-01-05T15:37:30.191Z,3.98
2019-01-05T15:40:04.241Z,3.50
2019-01-05T15:42:38.191Z,3.10
2019-01-05T15:45:23.195Z,3.50
2019-01-05T15:47:54.324Z,4.30
2019-01-05T15:50:34.592Z,3.90
2019-01-05T15:53:08.824Z,4.12
2019-01-05T15:55:55.312Z,4.65
2019-01-05T15:58:26.249Z,4.05
2019-01-05T16:01:03.573Z,4.35
2019-01-05T16:03:51.752Z,4.95
2019-01-05T16:06:25.909Z,5.70
2019-01-05T16:09:14.868Z,5.62
2019-01-05T16:11:48.900Z,5.40
2019-01-05T16:14:34.137Z,5.80
2019-01-05T16:17:18.929Z,5.65
2019-01-05T16:19:53.047Z,6.10
2019-01-05T16:22:33.484Z,4.90
2019-01-05T16:25:18.224Z,6.35
2019-01-05T16:28:03.081Z,6.40
2019-01-05T16:30:47.842Z,6.00
2019-01-05T16:33:22.060Z,5.80
2019-01-05T16:35:52.940Z,6.70
2019-01-05T16:38:26.948Z,7.60
2019-01-05T16:41:01.128Z,7.90
2019-01-05T16:43:41.549Z,8.30
2019-01-05T16:46:15.716Z,12.00
2019-01-05T16:49:02.018Z,13.58
2019-01-05T16:51:39.185Z,18.92
2019-01-05T16:54:10.258Z,13.95
2019-01-05T16:56:38.449Z,11.25
2019-01-05T16:59:18.970Z,13.60
2019-01-05T17:02:03.704Z,12.23
2019-01-05T17:04:32.033Z,11.15
2019-01-05T17:07:06.219Z,13.80
2019-01-05T17:09:51.553Z,11.00
2019-01-05T17:12:29.029Z,10.55
2019-01-05T17:15:04.723Z,11.45
2019-01-05T17:17:33.008Z,10.55
2019-01-05T17:20:17.804Z,12.25
2019-01-05T17:22:57.989Z,11.80
2019-01-05T17:25:41.259Z,12.20
2019-01-05T17:28:21.732Z,11.40
2019-01-05T17:30:53.037Z,11.65
2019-01-05T17:33:30.180Z,10.90
2019-01-05T17:36:16.623Z,12.30
2019-01-05T17:38:50.835Z,10.25
2019-01-05T17:41:35.572Z,11.00
2019-01-05T17:44:03.758Z,11.95
2019-01-05T17:46:47.001Z,12.43
2019-01-05T17:49:30.568Z,10.23
2019-01-05T17:52:13.841Z,9.95
2019-01-05T17:54:50.993Z,12.05
2019-01-05T17:57:19.208Z,10.23
2019-01-05T18:00:05.648Z,11.80
2019-01-05T18:02:36.845Z,12.80
2019-01-05T18:05:05.748Z,12.80
2019-01-05T18:07:34.064Z,10.78
2019-01-05T18:10:08.005Z,11.50
2019-01-05T18:12:51.433Z,10.38
2019-01-05T18:15:36.418Z,11.35
2019-01-05T18:18:19.738Z,12.55
2019-01-05T18:21:04.533Z,10.93
2019-01-05T18:23:49.793Z,11.70
2019-01-05T18:26:34.604Z,10.43
2019-01-05T18:29:19.489Z,11.43
2019-01-05T18:31:53.684Z,11.30
2019-01-05T18:34:28.124Z,12.75
2019-01-05T18:36:56.336Z,11.40
2019-01-05T18:39:33.560Z,11.45
2019-01-05T18:42:04.796Z,10.75
2019-01-05T18:44:45.299Z,11.22
2019-01-05T18:47:22.349Z,11.78
2019-01-05T18:50:08.979Z,14.28
2019-01-05T18:52:49.475Z,15.03
2019-01-05T18:55:20.673Z,12.58
2019-01-05T18:58:05.488Z,17.60
2019-01-05T19:00:33.766Z,15.50
2019-01-05T19:03:14.037Z,15.43
2019-01-05T19:05:42.197Z,13.65
2019-01-05T19:08:10.524Z,12.90
2019-01-05T19:10:53.520Z,14.07
2019-01-05T19:13:38.318Z,11.85
2019-01-05T19:16:21.514Z,15.32
2019-01-05T19:18:52.477Z,14.28
2019-01-05T19:21:20.680Z,12.63
2019-01-05T19:23:51.855Z,14.15
2019-01-05T19:26:20.163Z,14.55
2019-01-05T19:29:04.944Z,13.80
2019-01-05T19:31:33.081Z,14.83
2019-01-05T19:34:07.540Z,13.98
2019-01-05T19:36:35.813Z,17.70
2019-01-05T19:39:05.321Z,13.55
2019-01-05T19:41:42.505Z,16.30
2019-01-05T19:44:10.688Z,17.02
2019-01-05T19:46:56.909Z,14.75
2019-01-05T19:49:25.156Z,16.15
2019-01-05T19:52:10.169Z,16.35
2019-01-05T19:54:44.262Z,16.10
2019-01-05T19:57:24.530Z,17.25
2019-01-05T20:00:04.670Z,18.50
2019-01-05T20:02:32.935Z,17.85
2019-01-05T20:05:17.889Z,17.10
2019-01-05T20:07:52.800Z,14.87
2019-01-05T20:10:26.799Z,19.57
2019-01-05T20:12:57.781Z,16.42
2019-01-05T20:15:42.717Z,20.20
2019-01-05T20:18:16.685Z,15.03
2019-01-05T20:20:47.593Z,16.42
2019-01-05T20:23:32.530Z,31.27
2019-01-05T20:26:06.434Z,14.68
2019-01-05T20:28:46.692Z,16.90
2019-01-05T20:31:14.856Z,22.67
2019-01-05T20:33:43.037Z,22.87
2019-01-05T20:36:11.251Z,18.32
2019-01-05T20:38:39.556Z,16.32
2019-01-05T20:41:24.365Z,18.12
2019-01-05T20:43:59.672Z,15.35
2019-01-05T20:46:44.750Z,15.38
2019-01-05T20:49:13.024Z,14.80
2019-01-05T20:51:46.974Z,16.97
2019-01-05T20:54:21.087Z,16.00
2019-01-05T20:56:58.630Z,16.50
2019-01-05T20:59:26.924Z,16.52
2019-01-05T21:02:00.893Z,16.25
2019-01-05T21:04:31.847Z,16.15
2019-01-05T21:07:18.276Z,23.77
2019-01-05T21:09:52.254Z,29.10
2019-01-05T21:12:29.265Z,18.57
2019-01-05T21:15:13.984Z,16.65
2019-01-05T21:17:57.246Z,18.27
2019-01-05T21:20:35.853Z,17.57
2019-01-05T21:23:21.091Z,15.28
2019-01-05T21:26:01.117Z,15.60
2019-01-05T21:28:48.999Z,17.75
2019-01-05T21:31:19.929Z,15.98
2019-01-05T21:33:54.106Z,16.62
2019-01-05T21:36:38.811Z,17.17
2019-01-05T21:39:24.070Z,15.95
2019-01-05T21:41:52.344Z,17.45
2019-01-05T21:44:20.651Z,17.95
2019-01-05T21:46:48.822Z,14.75
2019-01-05T21:49:17.110Z,18.17
2019-01-05T21:52:02.144Z,16.95
2019-01-05T21:54:33.085Z,18.50
2019-01-05T21:57:17.821Z,16.07
2019-01-05T21:59:46.118Z,17.17
2019-01-05T22:02:17.367Z,17.23
2019-01-05T22:04:45.563Z,18.75
2019-01-05T22:07:13.833Z,16.07
2019-01-05T22:09:44.721Z,18.65
2019-01-05T22:12:21.986Z,16.00
2019-01-05T22:14:50.176Z,15.68
2019-01-05T22:17:27.374Z,16.48
2019-01-05T22:20:01.773Z,17.20
2019-01-05T22:22:46.699Z,15.35
2019-01-05T22:25:17.608Z,14.03
2019-01-05T22:28:02.470Z,14.47
2019-01-05T22:30:30.745Z,13.35
2019-01-05T22:33:15.496Z,15.18
2019-01-05T22:36:01.635Z,13.70
2019-01-05T22:38:35.589Z,14.53
2019-01-05T22:41:20.622Z,12.55
2019-01-05T22:44:00.804Z,13.38
2019-01-05T22:46:35.081Z,13.20
2019-01-05T22:49:03.280Z,11.30
2019-01-05T22:51:43.828Z,12.43
2019-01-05T22:54:12.005Z,13.00
2019-01-05T22:56:46.028Z,11.93
2019-01-05T22:59:17.395Z,13.40
2019-01-05T23:01:54.477Z,10.80
2019-01-05T23:04:34.680Z,13.00
2019-01-05T23:07:02.882Z,12.18
2019-01-05T23:09:46.341Z,10.78
2019-01-05T23:12:17.444Z,11.95
2019-01-05T23:15:00.712Z,12.47
2019-01-05T23:17:41.045Z,11.97
2019-01-05T23:20:25.981Z,13.35
2019-01-05T23:22:57.056Z,12.73
2019-01-05T23:25:37.549Z,10.35
2019-01-05T23:28:05.730Z,10.38
2019-01-05T23:30:36.925Z,12.70
2019-01-05T23:33:20.423Z,10.50
2019-01-05T23:35:51.336Z,11.83
2019-01-05T23:38:19.537Z,11.63
2019-01-05T23:41:02.888Z,13.15
2019-01-05T23:43:48.256Z,11.35
2019-01-05T23:46:28.844Z,10.55
2019-01-05T23:48:57.124Z,12.75
2019-01-05T23:51:41.965Z,10.55
2019-01-05T23:54:16.151Z,13.45
2019-01-05T23:57:01.265Z,12.00
2019-01-05T23:59:29.541Z,13.18
